Terminal Aerodrome Forecast
Issued by NWS

Home | Current Version | Previous Version | Text Only | Print | Product List | Glossary On
Versions: 1 2 3 4 5 6 7 8 9 10 11 12 13 14 15 16 17 18 19 20 21 22 23 24 25
061
FTUS41 KBUF 211739
TAFIAG
TAF
KIAG 211739Z 2118/2218 21004KT 3SM BR OVC006
     FM220400 00000KT 5SM BR OVC012
     FM220700 VRB03KT 2SM BR OVC012
     FM221300 09008KT 2SM -RA BR OVC020
     FM221700 11008KT 5SM -RA OVC020=

USA.gov is the U.S. government's official web portal to all federal, state and local government web resources and services.